createdAt,value
2019-03-01T00:00:55.954Z,1.70
2019-03-01T00:03:30.445Z,1.70
2019-03-01T00:06:12.958Z,1.70
2019-03-01T00:09:43.584Z,1.80
2019-03-01T00:13:03.862Z,1.82
2019-03-01T00:16:10.453Z,1.32
2019-03-01T00:19:06.071Z,1.70
2019-03-01T00:22:29.895Z,1.80
2019-03-01T00:25:32.127Z,2.02
2019-03-01T00:29:04.796Z,1.75
2019-03-01T00:32:04.392Z,1.60
2019-03-01T00:34:54.740Z,1.65
2019-03-01T00:38:12.275Z,1.52
2019-03-01T00:41:20.977Z,1.32
2019-03-01T00:44:31.119Z,1.60
2019-03-01T00:47:01.557Z,1.90
2019-03-01T00:49:33.090Z,1.60
2019-03-01T00:52:03.562Z,1.87
2019-03-01T00:54:33.996Z,1.67
2019-03-01T00:57:04.434Z,1.45
2019-03-01T00:59:34.911Z,1.37
2019-03-01T01:02:05.337Z,2.22
2019-03-01T01:04:35.733Z,1.47
2019-03-01T01:07:05.975Z,2.02
2019-03-01T01:09:36.326Z,1.55
2019-03-01T01:12:06.960Z,1.60
2019-03-01T01:14:37.256Z,1.67
2019-03-01T01:17:07.662Z,1.62
2019-03-01T01:19:38.095Z,1.67
2019-03-01T01:22:08.784Z,1.80
2019-03-01T01:24:39.179Z,1.70
2019-03-01T01:27:09.587Z,2.00
2019-03-01T01:29:40.020Z,1.72
2019-03-01T01:32:10.386Z,1.75
2019-03-01T01:34:41.013Z,1.67
2019-03-01T01:37:11.509Z,1.60
2019-03-01T01:39:41.910Z,1.92
2019-03-01T01:42:12.381Z,1.95
2019-03-01T01:44:42.790Z,1.50
2019-03-01T01:47:13.152Z,1.67
2019-03-01T01:49:43.561Z,1.80
2019-03-01T01:52:14.038Z,1.70
2019-03-01T01:54:44.387Z,1.67
2019-03-01T01:57:17.793Z,1.70
2019-03-01T01:59:50.745Z,1.80
2019-03-01T02:02:21.067Z,1.90
2019-03-01T02:04:51.401Z,1.80
2019-03-01T02:07:22.083Z,1.80
2019-03-01T02:09:52.641Z,1.77
2019-03-01T02:12:23.191Z,1.77
2019-03-01T02:14:53.589Z,1.57
2019-03-01T02:17:24.033Z,1.70
2019-03-01T02:19:54.456Z,1.70
2019-03-01T02:22:24.731Z,1.75
2019-03-01T02:24:55.114Z,1.95
2019-03-01T02:27:27.472Z,2.15
2019-03-01T02:30:00.460Z,1.82
2019-03-01T02:32:40.497Z,1.60
2019-03-01T02:35:12.876Z,2.00
2019-03-01T02:37:44.465Z,1.70
2019-03-01T02:40:14.969Z,2.00
2019-03-01T02:42:45.280Z,1.80
2019-03-01T02:45:17.365Z,2.00
2019-03-01T02:47:47.759Z,1.82
2019-03-01T02:50:18.825Z,1.72
2019-03-01T02:52:49.412Z,1.95
2019-03-01T02:55:20.097Z,2.08
2019-03-01T02:57:50.562Z,2.33
2019-03-01T03:00:25.705Z,1.92
2019-03-01T03:02:59.005Z,1.80
2019-03-01T03:05:29.427Z,1.70
2019-03-01T03:08:01.777Z,2.00
2019-03-01T03:10:32.732Z,2.45
2019-03-01T03:13:10.766Z,1.98
2019-03-01T03:15:43.847Z,2.10
2019-03-01T03:18:14.522Z,2.00
2019-03-01T03:20:44.905Z,1.95
2019-03-01T03:23:15.407Z,1.77
2019-03-01T03:25:46.064Z,1.77
2019-03-01T03:28:16.339Z,2.05
2019-03-01T03:30:46.762Z,1.75
2019-03-01T03:33:16.976Z,1.75
2019-03-01T03:35:47.605Z,1.90
2019-03-01T03:38:18.057Z,1.77
2019-03-01T03:40:48.551Z,2.02
2019-03-01T03:43:19.056Z,2.12
2019-03-01T03:45:49.308Z,2.00
2019-03-01T03:48:20.038Z,2.20
2019-03-01T03:50:50.499Z,1.95
2019-03-01T03:53:20.880Z,1.82
2019-03-01T03:55:51.509Z,2.10
2019-03-01T03:58:21.884Z,1.92
2019-03-01T04:00:52.234Z,2.00
2019-03-01T04:03:22.540Z,2.10
2019-03-01T04:05:53.073Z,1.82
2019-03-01T04:08:23.631Z,1.65
2019-03-01T04:10:54.042Z,1.98
2019-03-01T04:13:24.334Z,2.10
2019-03-01T04:15:54.793Z,1.92
2019-03-01T04:18:26.318Z,1.75
2019-03-01T04:20:56.718Z,2.33
2019-03-01T04:23:27.197Z,2.20
2019-03-01T04:25:57.935Z,1.90
2019-03-01T04:28:28.304Z,1.70
2019-03-01T04:30:58.795Z,2.02
2019-03-01T04:33:29.224Z,2.25
2019-03-01T04:36:00.030Z,2.00
2019-03-01T04:38:30.501Z,2.10
2019-03-01T04:41:02.594Z,2.12
2019-03-01T04:43:33.078Z,1.82
2019-03-01T04:46:03.791Z,1.90
2019-03-01T04:48:34.317Z,1.70
2019-03-01T04:51:04.806Z,2.10
2019-03-01T04:53:35.143Z,2.10
2019-03-01T04:56:05.714Z,2.10
2019-03-01T04:58:38.095Z,1.90
2019-03-01T05:01:08.680Z,2.00
2019-03-01T05:03:39.410Z,2.00
2019-03-01T05:06:09.664Z,2.00
2019-03-01T05:08:40.184Z,3.35
2019-03-01T05:11:10.567Z,2.17
2019-03-01T05:13:41.099Z,2.25
2019-03-01T05:16:11.447Z,2.47
2019-03-01T05:18:41.779Z,2.02
2019-03-01T05:21:12.386Z,2.30
2019-03-01T05:23:42.942Z,1.98
2019-03-01T05:26:13.836Z,2.20
2019-03-01T05:28:44.145Z,1.90
2019-03-01T05:31:15.436Z,1.90
2019-03-01T05:33:45.893Z,2.42
2019-03-01T05:36:16.424Z,2.75
2019-03-01T05:38:47.199Z,2.20
2019-03-01T05:41:18.669Z,2.42
2019-03-01T05:43:49.149Z,2.05
2019-03-01T05:46:19.533Z,2.20
2019-03-01T05:48:49.821Z,2.00
2019-03-01T05:51:20.238Z,2.30
2019-03-01T05:53:50.739Z,2.33
2019-03-01T05:56:21.130Z,2.20
2019-03-01T05:59:12.574Z,2.20
2019-03-01T06:02:12.298Z,2.33
2019-03-01T06:04:47.470Z,2.62
2019-03-01T06:07:45.975Z,2.00
2019-03-01T06:10:52.748Z,2.10
2019-03-01T06:13:52.803Z,2.27
2019-03-01T06:16:47.242Z,2.80
2019-03-01T06:19:39.067Z,2.22
2019-03-01T06:22:42.913Z,2.50
2019-03-01T06:26:07.689Z,2.20
2019-03-01T06:28:49.332Z,2.20
2019-03-01T06:32:15.451Z,2.37
2019-03-01T06:35:36.905Z,1.95
2019-03-01T06:39:19.708Z,2.42
2019-03-01T06:42:29.506Z,2.30
2019-03-01T06:45:50.325Z,2.50
2019-03-01T06:48:30.816Z,2.50
2019-03-01T06:51:17.271Z,2.50
2019-03-01T06:53:47.699Z,2.08
2019-03-01T06:56:18.043Z,2.33
2019-03-01T06:58:51.115Z,2.50
2019-03-01T07:01:28.800Z,2.55
2019-03-01T07:04:07.520Z,2.20
2019-03-01T07:06:37.929Z,2.62
2019-03-01T07:09:08.927Z,2.25
2019-03-01T07:11:39.351Z,3.00
2019-03-01T07:14:12.499Z,2.65
2019-03-01T07:16:42.951Z,2.75
2019-03-01T07:19:13.413Z,2.10
2019-03-01T07:21:43.879Z,2.47
2019-03-01T07:24:14.375Z,2.52
2019-03-01T07:26:44.982Z,2.75
2019-03-01T07:29:15.446Z,2.58
2019-03-01T07:31:45.896Z,2.47
2019-03-01T07:34:16.417Z,2.58
2019-03-01T07:36:49.343Z,3.08
2019-03-01T07:39:20.067Z,2.85
2019-03-01T07:41:50.465Z,3.08
2019-03-01T07:44:21.010Z,2.70
2019-03-01T07:46:53.270Z,2.52
2019-03-01T07:49:23.661Z,2.80
2019-03-01T07:51:54.035Z,2.90
2019-03-01T07:54:24.526Z,2.70
2019-03-01T07:56:55.139Z,2.75
2019-03-01T07:59:25.475Z,2.90
2019-03-01T08:02:00.814Z,2.70
2019-03-01T08:04:30.931Z,2.83
2019-03-01T08:07:03.684Z,2.37
2019-03-01T08:09:36.081Z,2.55
2019-03-01T08:12:07.288Z,2.75
2019-03-01T08:14:38.529Z,2.58
2019-03-01T08:17:10.022Z,2.72
2019-03-01T08:19:40.411Z,2.62
2019-03-01T08:22:10.744Z,2.60
2019-03-01T08:24:42.836Z,3.22
2019-03-01T08:27:15.205Z,2.92
2019-03-01T08:29:45.627Z,2.60
2019-03-01T08:32:16.309Z,2.90
2019-03-01T08:34:49.869Z,3.00
2019-03-01T08:37:19.597Z,2.58
2019-03-01T08:39:49.975Z,2.70
2019-03-01T08:42:20.438Z,2.67
2019-03-01T08:44:51.127Z,2.72
2019-03-01T08:47:24.522Z,3.17
2019-03-01T08:49:57.027Z,3.10
2019-03-01T08:52:27.572Z,3.00
2019-03-01T08:55:00.048Z,3.15
2019-03-01T08:57:30.291Z,2.75
2019-03-01T09:00:00.808Z,2.80
2019-03-01T09:02:32.703Z,2.70
2019-03-01T09:05:05.245Z,2.62
2019-03-01T09:07:34.362Z,2.90
2019-03-01T09:10:08.350Z,2.90
2019-03-01T09:12:39.216Z,2.90
2019-03-01T09:15:11.632Z,2.67
2019-03-01T09:17:42.107Z,2.58
2019-03-01T09:20:14.271Z,2.25
2019-03-01T09:22:44.487Z,2.25
2019-03-01T09:25:16.816Z,2.87
2019-03-01T09:27:47.303Z,2.77
2019-03-01T09:30:19.898Z,2.60
2019-03-01T09:32:51.959Z,2.30
2019-03-01T09:35:42.778Z,2.60
2019-03-01T09:38:11.894Z,2.45
2019-03-01T09:40:42.112Z,2.15
2019-03-01T09:43:12.393Z,2.00
2019-03-01T09:45:45.725Z,2.50
2019-03-01T09:48:14.612Z,2.92
2019-03-01T09:50:46.033Z,2.50
2019-03-01T09:53:16.323Z,2.12
2019-03-01T09:55:46.660Z,2.42
2019-03-01T09:58:16.820Z,3.15
2019-03-01T10:00:56.155Z,4.20
2019-03-01T10:03:22.176Z,4.47
2019-03-01T10:05:52.744Z,4.75
2019-03-01T10:08:23.369Z,4.17
2019-03-01T10:10:53.980Z,4.87
2019-03-01T10:13:24.267Z,5.30
2019-03-01T10:15:54.833Z,7.22
2019-03-01T10:18:25.522Z,8.43
2019-03-01T10:20:56.062Z,7.53
2019-03-01T10:23:26.752Z,6.15
2019-03-01T10:25:57.635Z,5.58
2019-03-01T10:28:30.043Z,5.75
2019-03-01T10:31:00.206Z,6.35
2019-03-01T10:33:29.343Z,5.10
2019-03-01T10:36:01.631Z,5.05
2019-03-01T10:38:31.849Z,5.67
2019-03-01T10:41:02.012Z,7.15
2019-03-01T10:43:32.251Z,8.35
2019-03-01T10:46:02.553Z,10.00
2019-03-01T10:48:33.191Z,9.45
2019-03-01T10:51:03.405Z,10.23
2019-03-01T10:53:33.790Z,10.40
2019-03-01T10:56:04.266Z,11.35
2019-03-01T10:58:34.626Z,12.18
2019-03-01T11:01:05.718Z,11.97
2019-03-01T11:03:37.244Z,12.40
2019-03-01T11:06:07.612Z,12.30
2019-03-01T11:08:38.358Z,12.47
2019-03-01T11:11:10.249Z,12.30
2019-03-01T11:13:40.716Z,12.78
2019-03-01T11:16:11.372Z,13.58
2019-03-01T11:18:41.905Z,14.73
2019-03-01T11:21:12.952Z,16.25
2019-03-01T11:23:43.603Z,16.05
2019-03-01T11:26:14.417Z,18.52
2019-03-01T11:28:44.940Z,18.23
2019-03-01T11:31:15.599Z,17.57
2019-03-01T11:33:46.489Z,17.60
2019-03-01T11:36:17.078Z,16.25
2019-03-01T11:38:47.610Z,19.52
2019-03-01T11:41:18.075Z,21.70
2019-03-01T11:43:50.537Z,20.90
2019-03-01T11:46:21.069Z,21.65
2019-03-01T11:48:54.744Z,21.37
2019-03-01T11:51:27.725Z,21.55
2019-03-01T11:53:57.942Z,21.65
2019-03-01T11:56:28.865Z,20.15
2019-03-01T11:58:59.570Z,20.90
2019-03-01T12:01:30.067Z,19.23
2019-03-01T12:04:00.725Z,18.23
2019-03-01T12:06:31.216Z,18.02
2019-03-01T12:09:01.593Z,17.60
2019-03-01T12:11:33.876Z,17.65
2019-03-01T12:14:04.483Z,17.32
2019-03-01T12:16:35.071Z,16.30
2019-03-01T12:19:05.548Z,16.27
2019-03-01T12:21:36.131Z,16.20
2019-03-01T12:24:06.822Z,17.00
2019-03-01T12:26:37.607Z,17.67
2019-03-01T12:29:08.298Z,17.00
2019-03-01T12:31:38.981Z,16.85
2019-03-01T12:34:10.148Z,17.20
2019-03-01T12:36:40.911Z,18.32
2019-03-01T12:39:11.693Z,20.23
2019-03-01T12:41:42.192Z,21.48
2019-03-01T12:44:12.691Z,20.92
2019-03-01T12:46:43.736Z,19.82
2019-03-01T12:49:14.655Z,20.75
2019-03-01T12:51:45.256Z,20.00
2019-03-01T12:54:15.987Z,18.50
2019-03-01T12:56:46.791Z,19.12
2019-03-01T12:59:17.523Z,19.23
2019-03-01T13:01:49.253Z,18.45
2019-03-01T13:04:20.159Z,20.10
2019-03-01T13:06:50.834Z,21.73
2019-03-01T13:09:23.426Z,30.55
2019-03-01T13:11:53.736Z,33.90
2019-03-01T13:14:24.491Z,32.45
2019-03-01T13:16:55.083Z,31.33
2019-03-01T13:19:26.991Z,28.20
2019-03-01T13:21:57.477Z,29.25
2019-03-01T13:24:27.933Z,28.67
2019-03-01T13:26:58.726Z,29.42
2019-03-01T13:29:29.697Z,30.17
2019-03-01T13:32:00.140Z,28.12
2019-03-01T13:34:30.736Z,29.07
2019-03-01T13:37:01.296Z,27.80
2019-03-01T13:39:36.552Z,27.62
2019-03-01T13:42:10.300Z,27.42
2019-03-01T13:44:39.784Z,26.33
2019-03-01T13:47:11.097Z,26.77
2019-03-01T13:49:41.697Z,27.42
2019-03-01T13:52:12.505Z,26.25
2019-03-01T13:54:45.478Z,25.68
2019-03-01T13:57:15.909Z,25.23
2019-03-01T13:59:46.379Z,23.83
2019-03-01T14:02:16.977Z,23.30
2019-03-01T14:04:47.772Z,23.18
2019-03-01T14:07:18.577Z,24.37
2019-03-01T14:09:49.174Z,24.57
2019-03-01T14:12:20.155Z,23.05
2019-03-01T14:14:50.629Z,23.22
2019-03-01T14:17:24.203Z,23.75
2019-03-01T14:19:53.177Z,23.25
2019-03-01T14:22:23.657Z,21.68
2019-03-01T14:24:54.041Z,20.25
2019-03-01T14:27:26.319Z,20.97
2019-03-01T14:29:56.457Z,21.00
2019-03-01T14:32:26.691Z,21.02
2019-03-01T14:34:57.069Z,20.68
2019-03-01T14:37:27.570Z,18.70
2019-03-01T14:39:59.055Z,21.27
2019-03-01T14:42:29.634Z,23.95
2019-03-01T14:45:00.043Z,25.70
2019-03-01T14:47:32.810Z,27.35
2019-03-01T14:50:02.499Z,30.32
2019-03-01T14:52:32.818Z,33.05
2019-03-01T14:55:03.223Z,31.93
2019-03-01T14:57:37.200Z,33.58
2019-03-01T15:00:28.388Z,31.95
2019-03-01T15:03:27.788Z,32.28
2019-03-01T15:05:58.318Z,33.35
2019-03-01T15:08:28.724Z,31.48
2019-03-01T15:11:04.286Z,32.35
2019-03-01T15:13:34.747Z,30.50
2019-03-01T15:16:07.229Z,30.43
2019-03-01T15:18:38.267Z,32.42
2019-03-01T15:21:09.196Z,31.10
2019-03-01T15:23:39.580Z,31.37
2019-03-01T15:26:09.851Z,32.28
2019-03-01T15:28:55.300Z,32.93
2019-03-01T15:31:26.326Z,32.35
2019-03-01T15:33:58.385Z,32.48
2019-03-01T15:36:28.674Z,31.85
2019-03-01T15:39:00.731Z,31.33
2019-03-01T15:41:50.005Z,30.72
2019-03-01T15:44:23.860Z,29.00
2019-03-01T15:46:54.510Z,30.10
2019-03-01T15:49:24.997Z,28.47
2019-03-01T15:51:55.386Z,27.70
2019-03-01T15:54:25.878Z,26.30
2019-03-01T15:56:56.245Z,26.27
2019-03-01T15:59:26.822Z,25.85
2019-03-01T16:01:57.284Z,27.10
2019-03-01T16:04:30.390Z,27.30
2019-03-01T16:06:59.914Z,25.95
2019-03-01T16:09:30.403Z,25.40
2019-03-01T16:12:00.829Z,23.92
2019-03-01T16:14:32.369Z,24.95
2019-03-01T16:17:02.905Z,24.00
2019-03-01T16:19:37.866Z,24.80
2019-03-01T16:22:08.363Z,25.35
2019-03-01T16:24:41.492Z,25.40
2019-03-01T16:27:15.170Z,26.30
2019-03-01T16:29:44.449Z,26.30
2019-03-01T16:32:14.932Z,27.35
2019-03-01T16:34:45.767Z,26.12
2019-03-01T16:37:16.267Z,27.05
2019-03-01T16:39:47.923Z,28.12
2019-03-01T16:42:18.910Z,26.45
2019-03-01T16:44:49.520Z,27.17
2019-03-01T16:47:19.988Z,26.82
2019-03-01T16:49:50.696Z,26.02
2019-03-01T16:52:21.121Z,27.77
2019-03-01T16:54:52.768Z,25.48
2019-03-01T16:57:25.906Z,26.97
2019-03-01T16:59:57.363Z,25.80
2019-03-01T17:02:27.808Z,28.75
2019-03-01T17:05:03.604Z,27.55
2019-03-01T17:07:33.185Z,27.02
2019-03-01T17:10:03.964Z,26.87
2019-03-01T17:12:34.459Z,28.85
2019-03-01T17:15:04.969Z,29.02
2019-03-01T17:17:36.853Z,30.15
2019-03-01T17:20:09.518Z,34.23
2019-03-01T17:22:40.067Z,37.10
2019-03-01T17:25:11.063Z,34.85
2019-03-01T17:27:43.482Z,34.53
2019-03-01T17:30:17.837Z,33.75
2019-03-01T17:32:49.599Z,34.05
2019-03-01T17:35:20.161Z,33.20
2019-03-01T17:37:50.523Z,34.15
2019-03-01T17:40:21.937Z,34.50
2019-03-01T17:42:53.164Z,32.80
2019-03-01T17:45:25.351Z,32.53
2019-03-01T17:47:55.926Z,31.75
2019-03-01T17:50:26.440Z,31.85
2019-03-01T17:52:56.868Z,30.68
2019-03-01T17:55:27.272Z,29.02
2019-03-01T17:57:57.692Z,15.25
2019-03-01T18:00:34.378Z,17.80
2019-03-01T18:03:04.908Z,23.15
2019-03-01T18:05:37.043Z,23.42
2019-03-01T18:08:07.593Z,23.65
2019-03-01T18:10:37.989Z,23.10
2019-03-01T18:13:08.819Z,21.97
2019-03-01T18:15:39.337Z,23.50
2019-03-01T18:18:12.114Z,22.75
2019-03-01T18:20:43.009Z,24.77
2019-03-01T18:23:13.461Z,24.55
2019-03-01T18:25:43.931Z,26.48
2019-03-01T18:28:14.394Z,26.70
2019-03-01T18:30:44.817Z,27.65
2019-03-01T18:33:16.840Z,27.67
2019-03-01T18:35:52.441Z,28.17
2019-03-01T18:38:22.925Z,26.97
2019-03-01T18:40:53.377Z,26.97
2019-03-01T18:43:23.783Z,26.90
2019-03-01T18:45:55.369Z,26.00
2019-03-01T18:48:25.780Z,25.90
2019-03-01T18:50:56.660Z,26.37
2019-03-01T18:53:28.636Z,26.17
2019-03-01T18:55:59.640Z,26.70
2019-03-01T18:58:30.342Z,27.42
2019-03-01T19:01:02.407Z,27.35
2019-03-01T19:03:33.039Z,27.32
2019-03-01T19:06:04.728Z,27.05
2019-03-01T19:08:36.486Z,26.95
2019-03-01T19:11:07.106Z,26.95
2019-03-01T19:13:37.589Z,26.62
2019-03-01T19:16:10.003Z,25.95
2019-03-01T19:18:42.179Z,26.10
2019-03-01T19:21:14.034Z,26.65
2019-03-01T19:23:45.251Z,27.80
2019-03-01T19:26:15.939Z,27.07
2019-03-01T19:28:46.923Z,28.15
2019-03-01T19:31:17.403Z,27.30
2019-03-01T19:33:47.868Z,28.75
2019-03-01T19:36:18.476Z,29.50
2019-03-01T19:38:48.976Z,30.37
2019-03-01T19:41:20.014Z,32.33
2019-03-01T19:43:57.464Z,35.28
2019-03-01T19:46:23.856Z,36.53
2019-03-01T19:48:54.289Z,35.10
2019-03-01T19:51:24.742Z,36.13
2019-03-01T19:53:57.428Z,36.77
2019-03-01T19:56:27.557Z,35.85
2019-03-01T19:58:59.385Z,36.28
2019-03-01T20:01:30.034Z,36.83
2019-03-01T20:04:00.440Z,36.83
2019-03-01T20:06:31.035Z,40.45
2019-03-01T20:09:04.253Z,37.85
2019-03-01T20:11:35.314Z,37.75
2019-03-01T20:14:07.120Z,36.75
2019-03-01T20:16:37.541Z,39.88
2019-03-01T20:19:08.086Z,38.45
2019-03-01T20:21:41.332Z,38.58
2019-03-01T20:24:10.803Z,38.92
2019-03-01T20:26:41.293Z,38.98
2019-03-01T20:29:13.217Z,37.30
2019-03-01T20:31:43.679Z,36.93
2019-03-01T20:34:14.065Z,37.55
2019-03-01T20:36:44.574Z,37.03
2019-03-01T20:39:15.414Z,34.63
2019-03-01T20:41:46.930Z,34.40
2019-03-01T20:44:19.739Z,33.48
2019-03-01T20:46:50.406Z,32.95
2019-03-01T20:49:20.936Z,31.80
2019-03-01T20:51:52.394Z,31.30
2019-03-01T20:54:25.771Z,30.57
2019-03-01T20:56:57.480Z,29.37
2019-03-01T20:59:28.232Z,31.70
2019-03-01T21:01:58.672Z,27.70
2019-03-01T21:04:30.051Z,31.62
2019-03-01T21:07:00.764Z,31.82
2019-03-01T21:09:31.921Z,34.73
2019-03-01T21:12:02.927Z,38.58
2019-03-01T21:14:36.141Z,38.42
2019-03-01T21:17:09.982Z,40.88
2019-03-01T21:19:43.759Z,43.80
2019-03-01T21:22:16.691Z,44.48
2019-03-01T21:24:51.100Z,42.78
2019-03-01T21:27:25.926Z,43.48
2019-03-01T21:29:58.518Z,44.70
2019-03-01T21:32:34.142Z,43.40
2019-03-01T21:35:10.469Z,44.85
2019-03-01T21:37:44.219Z,45.28
2019-03-01T21:40:14.802Z,43.55
2019-03-01T21:42:45.436Z,43.85
2019-03-01T21:45:21.568Z,43.60
2019-03-01T21:47:50.178Z,44.45
2019-03-01T21:50:20.561Z,44.42
2019-03-01T21:52:51.099Z,50.78
2019-03-01T21:55:24.802Z,54.83
2019-03-01T21:57:53.674Z,55.95
2019-03-01T22:00:29.647Z,59.85
2019-03-01T22:02:59.083Z,59.73
2019-03-01T22:05:29.526Z,59.55
2019-03-01T22:08:01.530Z,60.78
2019-03-01T22:10:35.629Z,61.35
2019-03-01T22:13:07.352Z,60.25
2019-03-01T22:16:00.987Z,61.45
2019-03-01T22:18:32.664Z,58.75
2019-03-01T22:21:03.272Z,59.53
2019-03-01T22:23:34.526Z,58.90
2019-03-01T22:26:05.283Z,58.45
2019-03-01T22:28:36.197Z,58.98
2019-03-01T22:31:09.197Z,59.80
2019-03-01T22:33:39.983Z,59.10
2019-03-01T22:36:10.445Z,57.38
2019-03-01T22:38:42.351Z,56.75
2019-03-01T22:41:13.360Z,57.73
2019-03-01T22:43:44.271Z,58.25
2019-03-01T22:46:14.980Z,59.88
2019-03-01T22:48:48.942Z,56.00
2019-03-01T22:51:18.076Z,56.90
2019-03-01T22:53:49.496Z,55.98
2019-03-01T22:56:22.463Z,58.13
2019-03-01T22:58:53.074Z,56.15
2019-03-01T23:01:44.553Z,55.60
2019-03-01T23:04:15.039Z,57.67
2019-03-01T23:06:47.607Z,56.55
2019-03-01T23:09:18.552Z,58.73
2019-03-01T23:11:49.144Z,56.60
2019-03-01T23:14:19.660Z,55.33
2019-03-01T23:16:50.790Z,56.40
2019-03-01T23:19:22.433Z,58.02
2019-03-01T23:21:53.193Z,56.77
2019-03-01T23:24:23.703Z,58.90
2019-03-01T23:26:56.755Z,57.15
2019-03-01T23:29:26.377Z,56.05
2019-03-01T23:31:57.272Z,56.53
2019-03-01T23:34:27.916Z,57.53
2019-03-01T23:37:00.684Z,56.98
2019-03-01T23:39:30.848Z,55.60
2019-03-01T23:42:04.177Z,59.33
2019-03-01T23:44:34.920Z,56.88
2019-03-01T23:47:06.406Z,56.58
2019-03-01T23:49:37.016Z,57.08
2019-03-01T23:52:10.114Z,55.70
2019-03-01T23:54:44.229Z,56.30
2019-03-01T23:57:13.891Z,54.67
2019-03-01T23:59:44.588Z,56.40
